sensor_id;sensor_type;location;lat;lon;timestamp;P1;durP1;ratioP1;P2;durP2;ratioP2
31716;SDS011;18301;51.076;17.046;2023-04-24T00:02:06;19.92;;;13.85;;
31716;SDS011;18301;51.076;17.046;2023-04-24T00:07:12;25.83;;;14.70;;
31716;SDS011;18301;51.076;17.046;2023-04-24T00:12:14;20.90;;;13.85;;
31716;SDS011;18301;51.076;17.046;2023-04-24T00:17:15;21.88;;;14.77;;
31716;SDS011;18301;51.076;17.046;2023-04-24T00:22:21;21.58;;;15.07;;
31716;SDS011;18301;51.076;17.046;2023-04-24T00:27:22;23.55;;;15.35;;
31716;SDS011;18301;51.076;17.046;2023-04-24T00:32:24;22.08;;;15.57;;
31716;SDS011;18301;51.076;17.046;2023-04-24T00:37:25;24.63;;;16.25;;
31716;SDS011;18301;51.076;17.046;2023-04-24T00:42:27;24.50;;;15.45;;
31716;SDS011;18301;51.076;17.046;2023-04-24T00:47:28;25.23;;;16.23;;
31716;SDS011;18301;51.076;17.046;2023-04-24T00:52:31;24.88;;;16.65;;
31716;SDS011;18301;51.076;17.046;2023-04-24T00:57:33;24.00;;;15.95;;
31716;SDS011;18301;51.076;17.046;2023-04-24T01:02:35;27.52;;;16.70;;
31716;SDS011;18301;51.076;17.046;2023-04-24T01:07:41;26.23;;;15.88;;
31716;SDS011;18301;51.076;17.046;2023-04-24T01:12:46;24.02;;;15.57;;
31716;SDS011;18301;51.076;17.046;2023-04-24T01:17:48;25.27;;;16.90;;
31716;SDS011;18301;51.076;17.046;2023-04-24T01:22:49;21.77;;;15.20;;
31716;SDS011;18301;51.076;17.046;2023-04-24T01:27:51;28.67;;;17.10;;
31716;SDS011;18301;51.076;17.046;2023-04-24T01:32:53;27.13;;;15.60;;
31716;SDS011;18301;51.076;17.046;2023-04-24T01:37:56;25.00;;;15.48;;
31716;SDS011;18301;51.076;17.046;2023-04-24T01:42:58;24.00;;;15.18;;
31716;SDS011;18301;51.076;17.046;2023-04-24T01:48:00;22.70;;;14.88;;
31716;SDS011;18301;51.076;17.046;2023-04-24T01:53:01;24.38;;;14.38;;
31716;SDS011;18301;51.076;17.046;2023-04-24T01:58:03;21.98;;;14.52;;
31716;SDS011;18301;51.076;17.046;2023-04-24T02:03:04;24.58;;;13.82;;
31716;SDS011;18301;51.076;17.046;2023-04-24T02:08:07;17.40;;;12.02;;
31716;SDS011;18301;51.076;17.046;2023-04-24T02:13:08;20.70;;;14.05;;
31716;SDS011;18301;51.076;17.046;2023-04-24T02:18:10;17.88;;;12.57;;
31716;SDS011;18301;51.076;17.046;2023-04-24T02:23:12;20.90;;;13.43;;
31716;SDS011;18301;51.076;17.046;2023-04-24T02:28:14;21.27;;;12.98;;
31716;SDS011;18301;51.076;17.046;2023-04-24T02:33:16;18.33;;;13.15;;
31716;SDS011;18301;51.076;17.046;2023-04-24T02:38:17;17.77;;;12.68;;
31716;SDS011;18301;51.076;17.046;2023-04-24T02:43:19;20.13;;;12.77;;
31716;SDS011;18301;51.076;17.046;2023-04-24T02:48:21;17.80;;;11.75;;
31716;SDS011;18301;51.076;17.046;2023-04-24T02:53:22;18.77;;;13.00;;
31716;SDS011;18301;51.076;17.046;2023-04-24T02:58:24;20.92;;;12.52;;
31716;SDS011;18301;51.076;17.046;2023-04-24T03:03:26;17.73;;;12.93;;
31716;SDS011;18301;51.076;17.046;2023-04-24T03:08:27;17.85;;;12.30;;
31716;SDS011;18301;51.076;17.046;2023-04-24T03:13:29;18.40;;;12.85;;
31716;SDS011;18301;51.076;17.046;2023-04-24T03:18:30;17.23;;;12.38;;
31716;SDS011;18301;51.076;17.046;2023-04-24T03:23:32;17.13;;;12.23;;
31716;SDS011;18301;51.076;17.046;2023-04-24T03:28:33;18.23;;;12.07;;
31716;SDS011;18301;51.076;17.046;2023-04-24T03:33:35;16.92;;;11.93;;
31716;SDS011;18301;51.076;17.046;2023-04-24T03:38:37;19.55;;;12.82;;
31716;SDS011;18301;51.076;17.046;2023-04-24T03:43:38;18.33;;;12.88;;
31716;SDS011;18301;51.076;17.046;2023-04-24T03:48:40;17.90;;;12.05;;
31716;SDS011;18301;51.076;17.046;2023-04-24T03:53:41;19.35;;;12.88;;
31716;SDS011;18301;51.076;17.046;2023-04-24T03:58:43;17.92;;;12.73;;
31716;SDS011;18301;51.076;17.046;2023-04-24T04:03:44;20.77;;;13.70;;
31716;SDS011;18301;51.076;17.046;2023-04-24T04:08:46;17.65;;;13.52;;
31716;SDS011;18301;51.076;17.046;2023-04-24T04:13:48;18.15;;;12.52;;
31716;SDS011;18301;51.076;17.046;2023-04-24T04:18:49;17.65;;;12.95;;
31716;SDS011;18301;51.076;17.046;2023-04-24T04:23:51;17.27;;;13.10;;
31716;SDS011;18301;51.076;17.046;2023-04-24T04:28:52;21.30;;;13.18;;
31716;SDS011;18301;51.076;17.046;2023-04-24T04:33:54;18.95;;;13.82;;
31716;SDS011;18301;51.076;17.046;2023-04-24T04:38:55;18.45;;;13.07;;
31716;SDS011;18301;51.076;17.046;2023-04-24T04:43:57;16.42;;;12.02;;
31716;SDS011;18301;51.076;17.046;2023-04-24T04:49:00;20.17;;;13.68;;
31716;SDS011;18301;51.076;17.046;2023-04-24T04:54:02;18.92;;;12.50;;
31716;SDS011;18301;51.076;17.046;2023-04-24T04:59:03;17.15;;;11.73;;
31716;SDS011;18301;51.076;17.046;2023-04-24T05:04:05;16.15;;;11.93;;
31716;SDS011;18301;51.076;17.046;2023-04-24T05:09:07;16.77;;;11.68;;
31716;SDS011;18301;51.076;17.046;2023-04-24T05:14:09;14.65;;;11.10;;
31716;SDS011;18301;51.076;17.046;2023-04-24T05:19:10;14.35;;;10.07;;
31716;SDS011;18301;51.076;17.046;2023-04-24T05:24:15;15.15;;;10.88;;
31716;SDS011;18301;51.076;17.046;2023-04-24T05:29:17;16.73;;;9.55;;
31716;SDS011;18301;51.076;17.046;2023-04-24T05:34:20;14.65;;;9.75;;
31716;SDS011;18301;51.076;17.046;2023-04-24T05:39:21;15.45;;;10.15;;
31716;SDS011;18301;51.076;17.046;2023-04-24T05:44:23;12.98;;;8.77;;
31716;SDS011;18301;51.076;17.046;2023-04-24T05:49:24;12.30;;;8.90;;
31716;SDS011;18301;51.076;17.046;2023-04-24T05:54:26;13.57;;;8.30;;
31716;SDS011;18301;51.076;17.046;2023-04-24T05:59:27;14.95;;;7.95;;
31716;SDS011;18301;51.076;17.046;2023-04-24T06:04:29;8.88;;;7.20;;
31716;SDS011;18301;51.076;17.046;2023-04-24T06:09:30;10.30;;;7.50;;
31716;SDS011;18301;51.076;17.046;2023-04-24T06:14:32;11.82;;;6.93;;
31716;SDS011;18301;51.076;17.046;2023-04-24T06:19:33;12.73;;;7.75;;
31716;SDS011;18301;51.076;17.046;2023-04-24T06:24:35;10.48;;;7.28;;
31716;SDS011;18301;51.076;17.046;2023-04-24T06:29:36;10.00;;;6.80;;
31716;SDS011;18301;51.076;17.046;2023-04-24T06:34:38;11.90;;;7.20;;
31716;SDS011;18301;51.076;17.046;2023-04-24T06:39:39;11.80;;;8.02;;
31716;SDS011;18301;51.076;17.046;2023-04-24T06:44:41;9.90;;;6.43;;
31716;SDS011;18301;51.076;17.046;2023-04-24T06:49:43;12.52;;;7.35;;
31716;SDS011;18301;51.076;17.046;2023-04-24T06:54:45;8.63;;;6.97;;
31716;SDS011;18301;51.076;17.046;2023-04-24T06:59:46;9.95;;;7.43;;
31716;SDS011;18301;51.076;17.046;2023-04-24T07:04:48;8.32;;;6.38;;
31716;SDS011;18301;51.076;17.046;2023-04-24T07:09:49;9.93;;;7.25;;
31716;SDS011;18301;51.076;17.046;2023-04-24T07:14:51;10.52;;;6.72;;
31716;SDS011;18301;51.076;17.046;2023-04-24T07:19:53;10.57;;;7.00;;
31716;SDS011;18301;51.076;17.046;2023-04-24T07:24:54;10.70;;;7.32;;
31716;SDS011;18301;51.076;17.046;2023-04-24T07:29:56;9.32;;;6.80;;
31716;SDS011;18301;51.076;17.046;2023-04-24T07:34:57;10.95;;;7.28;;
31716;SDS011;18301;51.076;17.046;2023-04-24T07:39:59;9.05;;;7.30;;
31716;SDS011;18301;51.076;17.046;2023-04-24T07:45:00;8.20;;;7.00;;
31716;SDS011;18301;51.076;17.046;2023-04-24T07:50:02;8.88;;;6.25;;
31716;SDS011;18301;51.076;17.046;2023-04-24T07:55:04;9.23;;;6.32;;
31716;SDS011;18301;51.076;17.046;2023-04-24T08:00:07;9.10;;;6.05;;
31716;SDS011;18301;51.076;17.046;2023-04-24T08:05:10;8.68;;;6.43;;
31716;SDS011;18301;51.076;17.046;2023-04-24T08:10:12;8.38;;;6.28;;
31716;SDS011;18301;51.076;17.046;2023-04-24T08:15:14;9.05;;;6.30;;
31716;SDS011;18301;51.076;17.046;2023-04-24T08:20:16;10.18;;;6.63;;
31716;SDS011;18301;51.076;17.046;2023-04-24T08:25:17;11.02;;;7.10;;
31716;SDS011;18301;51.076;17.046;2023-04-24T08:30:20;9.05;;;7.20;;
31716;SDS011;18301;51.076;17.046;2023-04-24T08:35:21;9.00;;;7.38;;
31716;SDS011;18301;51.076;17.046;2023-04-24T08:40:27;9.57;;;7.07;;
31716;SDS011;18301;51.076;17.046;2023-04-24T08:45:32;8.38;;;7.18;;
31716;SDS011;18301;51.076;17.046;2023-04-24T08:50:34;10.95;;;7.78;;
31716;SDS011;18301;51.076;17.046;2023-04-24T08:55:36;10.38;;;7.07;;
31716;SDS011;18301;51.076;17.046;2023-04-24T09:00:39;10.60;;;7.45;;
31716;SDS011;18301;51.076;17.046;2023-04-24T09:05:46;11.25;;;7.05;;
31716;SDS011;18301;51.076;17.046;2023-04-24T09:10:48;10.30;;;6.60;;
31716;SDS011;18301;51.076;17.046;2023-04-24T09:15:51;7.47;;;6.05;;
31716;SDS011;18301;51.076;17.046;2023-04-24T09:21:03;9.23;;;6.78;;
31716;SDS011;18301;51.076;17.046;2023-04-24T09:26:08;8.50;;;6.32;;
31716;SDS011;18301;51.076;17.046;2023-04-24T09:31:14;15.27;;;10.05;;
31716;SDS011;18301;51.076;17.046;2023-04-24T09:36:19;10.35;;;7.18;;
31716;SDS011;18301;51.076;17.046;2023-04-24T09:41:28;11.05;;;7.95;;
31716;SDS011;18301;51.076;17.046;2023-04-24T09:46:30;11.60;;;9.15;;
31716;SDS011;18301;51.076;17.046;2023-04-24T09:51:36;10.10;;;7.00;;
31716;SDS011;18301;51.076;17.046;2023-04-24T09:56:39;10.20;;;7.47;;
31716;SDS011;18301;51.076;17.046;2023-04-24T10:01:44;9.95;;;8.27;;
31716;SDS011;18301;51.076;17.046;2023-04-24T10:06:47;10.85;;;7.78;;
31716;SDS011;18301;51.076;17.046;2023-04-24T10:11:52;9.90;;;7.30;;
31716;SDS011;18301;51.076;17.046;2023-04-24T10:16:55;8.75;;;7.82;;
31716;SDS011;18301;51.076;17.046;2023-04-24T10:22:00;8.80;;;7.03;;
31716;SDS011;18301;51.076;17.046;2023-04-24T10:27:02;10.50;;;6.22;;
31716;SDS011;18301;51.076;17.046;2023-04-24T10:32:06;7.78;;;6.35;;
31716;SDS011;18301;51.076;17.046;2023-04-24T10:37:08;10.70;;;6.70;;
31716;SDS011;18301;51.076;17.046;2023-04-24T10:42:16;10.85;;;6.75;;
31716;SDS011;18301;51.076;17.046;2023-04-24T10:47:18;9.57;;;6.90;;
31716;SDS011;18301;51.076;17.046;2023-04-24T10:52:19;8.70;;;7.38;;
31716;SDS011;18301;51.076;17.046;2023-04-24T10:57:28;11.25;;;6.97;;
31716;SDS011;18301;51.076;17.046;2023-04-24T11:02:35;11.25;;;6.80;;
31716;SDS011;18301;51.076;17.046;2023-04-24T11:08:09;9.15;;;7.15;;
31716;SDS011;18301;51.076;17.046;2023-04-24T11:13:16;11.35;;;8.40;;
31716;SDS011;18301;51.076;17.046;2023-04-24T11:18:18;13.18;;;8.68;;
31716;SDS011;18301;51.076;17.046;2023-04-24T11:23:20;11.45;;;8.30;;
31716;SDS011;18301;51.076;17.046;2023-04-24T11:28:22;9.27;;;7.53;;
31716;SDS011;18301;51.076;17.046;2023-04-24T11:33:25;9.23;;;7.85;;
31716;SDS011;18301;51.076;17.046;2023-04-24T11:38:27;8.70;;;6.80;;
31716;SDS011;18301;51.076;17.046;2023-04-24T11:43:28;10.65;;;7.68;;
31716;SDS011;18301;51.076;17.046;2023-04-24T11:48:36;10.32;;;7.28;;
31716;SDS011;18301;51.076;17.046;2023-04-24T11:53:41;8.18;;;7.13;;
31716;SDS011;18301;51.076;17.046;2023-04-24T11:58:44;9.05;;;7.90;;
31716;SDS011;18301;51.076;17.046;2023-04-24T12:03:49;10.70;;;8.00;;
31716;SDS011;18301;51.076;17.046;2023-04-24T12:08:52;10.70;;;8.02;;
31716;SDS011;18301;51.076;17.046;2023-04-24T12:14:11;10.88;;;7.72;;
31716;SDS011;18301;51.076;17.046;2023-04-24T12:19:17;11.00;;;8.35;;
31716;SDS011;18301;51.076;17.046;2023-04-24T12:24:30;14.27;;;7.60;;
31716;SDS011;18301;51.076;17.046;2023-04-24T12:29:32;10.68;;;6.97;;
31716;SDS011;18301;51.076;17.046;2023-04-24T12:34:34;8.98;;;5.82;;
31716;SDS011;18301;51.076;17.046;2023-04-24T12:39:36;10.43;;;6.43;;
31716;SDS011;18301;51.076;17.046;2023-04-24T12:44:37;8.70;;;5.55;;
31716;SDS011;18301;51.076;17.046;2023-04-24T12:49:45;8.48;;;6.25;;
31716;SDS011;18301;51.076;17.046;2023-04-24T12:54:47;9.68;;;6.65;;
31716;SDS011;18301;51.076;17.046;2023-04-24T12:59:48;9.68;;;6.55;;
31716;SDS011;18301;51.076;17.046;2023-04-24T13:04:50;9.77;;;6.40;;
31716;SDS011;18301;51.076;17.046;2023-04-24T13:09:52;6.78;;;6.07;;
31716;SDS011;18301;51.076;17.046;2023-04-24T13:14:55;6.10;;;4.90;;
31716;SDS011;18301;51.076;17.046;2023-04-24T13:19:57;5.63;;;4.53;;
31716;SDS011;18301;51.076;17.046;2023-04-24T13:24:58;5.40;;;3.90;;
31716;SDS011;18301;51.076;17.046;2023-04-24T13:30:00;5.43;;;3.20;;
31716;SDS011;18301;51.076;17.046;2023-04-24T13:35:02;3.80;;;2.47;;
31716;SDS011;18301;51.076;17.046;2023-04-24T13:40:04;3.72;;;2.47;;
31716;SDS011;18301;51.076;17.046;2023-04-24T13:45:07;5.35;;;2.83;;
31716;SDS011;18301;51.076;17.046;2023-04-24T13:50:25;4.37;;;2.00;;
31716;SDS011;18301;51.076;17.046;2023-04-24T13:55:26;2.78;;;2.20;;
31716;SDS011;18301;51.076;17.046;2023-04-24T14:00:28;3.80;;;2.35;;
31716;SDS011;18301;51.076;17.046;2023-04-24T14:05:29;4.32;;;2.15;;
31716;SDS011;18301;51.076;17.046;2023-04-24T14:10:31;3.97;;;2.47;;
31716;SDS011;18301;51.076;17.046;2023-04-24T14:15:32;2.95;;;1.95;;
31716;SDS011;18301;51.076;17.046;2023-04-24T14:20:34;4.18;;;2.10;;
31716;SDS011;18301;51.076;17.046;2023-04-24T14:25:36;4.53;;;2.22;;
31716;SDS011;18301;51.076;17.046;2023-04-24T14:30:40;2.53;;;2.10;;
31716;SDS011;18301;51.076;17.046;2023-04-24T14:35:42;4.07;;;2.10;;
31716;SDS011;18301;51.076;17.046;2023-04-24T14:40:44;4.10;;;2.40;;
31716;SDS011;18301;51.076;17.046;2023-04-24T14:46:05;6.07;;;2.47;;
31716;SDS011;18301;51.076;17.046;2023-04-24T14:51:06;5.45;;;3.00;;
31716;SDS011;18301;51.076;17.046;2023-04-24T14:56:08;6.75;;;2.45;;
31716;SDS011;18301;51.076;17.046;2023-04-24T15:01:10;3.67;;;2.53;;
31716;SDS011;18301;51.076;17.046;2023-04-24T15:06:12;3.78;;;2.60;;
31716;SDS011;18301;51.076;17.046;2023-04-24T15:11:14;3.35;;;2.08;;
31716;SDS011;18301;51.076;17.046;2023-04-24T15:16:15;3.30;;;1.98;;
31716;SDS011;18301;51.076;17.046;2023-04-24T15:21:17;3.70;;;1.52;;
31716;SDS011;18301;51.076;17.046;2023-04-24T15:26:19;2.80;;;1.80;;
31716;SDS011;18301;51.076;17.046;2023-04-24T15:31:20;4.57;;;1.80;;
31716;SDS011;18301;51.076;17.046;2023-04-24T15:36:24;4.35;;;2.95;;
31716;SDS011;18301;51.076;17.046;2023-04-24T15:41:25;5.50;;;2.92;;
31716;SDS011;18301;51.076;17.046;2023-04-24T15:46:27;4.78;;;2.70;;
31716;SDS011;18301;51.076;17.046;2023-04-24T15:51:28;3.78;;;1.88;;
31716;SDS011;18301;51.076;17.046;2023-04-24T15:56:30;3.65;;;1.85;;
31716;SDS011;18301;51.076;17.046;2023-04-24T16:01:31;2.85;;;1.90;;
31716;SDS011;18301;51.076;17.046;2023-04-24T16:06:34;5.72;;;2.72;;
31716;SDS011;18301;51.076;17.046;2023-04-24T16:11:35;5.30;;;2.70;;
31716;SDS011;18301;51.076;17.046;2023-04-24T16:16:37;3.80;;;2.15;;
31716;SDS011;18301;51.076;17.046;2023-04-24T16:21:39;4.43;;;2.35;;
31716;SDS011;18301;51.076;17.046;2023-04-24T16:26:40;7.05;;;2.60;;
31716;SDS011;18301;51.076;17.046;2023-04-24T16:31:42;4.47;;;2.40;;
31716;SDS011;18301;51.076;17.046;2023-04-24T16:36:43;2.90;;;2.30;;
31716;SDS011;18301;51.076;17.046;2023-04-24T16:41:45;4.20;;;2.75;;
31716;SDS011;18301;51.076;17.046;2023-04-24T16:46:47;5.00;;;2.50;;
31716;SDS011;18301;51.076;17.046;2023-04-24T16:51:48;4.68;;;2.92;;
31716;SDS011;18301;51.076;17.046;2023-04-24T16:56:51;4.45;;;2.90;;
31716;SDS011;18301;51.076;17.046;2023-04-24T17:01:54;4.55;;;2.67;;
31716;SDS011;18301;51.076;17.046;2023-04-24T17:06:55;5.03;;;2.90;;
31716;SDS011;18301;51.076;17.046;2023-04-24T17:11:57;4.60;;;2.75;;
31716;SDS011;18301;51.076;17.046;2023-04-24T17:16:58;6.60;;;3.53;;
31716;SDS011;18301;51.076;17.046;2023-04-24T17:22:00;5.70;;;3.63;;
31716;SDS011;18301;51.076;17.046;2023-04-24T17:27:06;8.98;;;4.05;;
31716;SDS011;18301;51.076;17.046;2023-04-24T17:32:15;4.85;;;3.08;;
31716;SDS011;18301;51.076;17.046;2023-04-24T17:37:17;6.25;;;3.20;;
31716;SDS011;18301;51.076;17.046;2023-04-24T17:42:20;5.60;;;3.55;;
31716;SDS011;18301;51.076;17.046;2023-04-24T17:47:21;6.82;;;3.40;;
31716;SDS011;18301;51.076;17.046;2023-04-24T17:52:26;8.60;;;5.22;;
31716;SDS011;18301;51.076;17.046;2023-04-24T17:57:27;10.48;;;6.15;;
31716;SDS011;18301;51.076;17.046;2023-04-24T18:02:29;11.77;;;6.28;;
31716;SDS011;18301;51.076;17.046;2023-04-24T18:07:30;10.07;;;5.65;;
31716;SDS011;18301;51.076;17.046;2023-04-24T18:12:32;8.98;;;5.50;;
31716;SDS011;18301;51.076;17.046;2023-04-24T18:17:33;9.63;;;4.65;;
31716;SDS011;18301;51.076;17.046;2023-04-24T18:22:35;9.02;;;5.30;;
31716;SDS011;18301;51.076;17.046;2023-04-24T18:27:36;9.75;;;5.55;;
31716;SDS011;18301;51.076;17.046;2023-04-24T18:32:38;12.40;;;5.65;;
31716;SDS011;18301;51.076;17.046;2023-04-24T18:37:40;9.10;;;5.50;;
31716;SDS011;18301;51.076;17.046;2023-04-24T18:42:42;12.05;;;6.00;;
31716;SDS011;18301;51.076;17.046;2023-04-24T18:47:44;9.55;;;5.78;;
31716;SDS011;18301;51.076;17.046;2023-04-24T18:52:45;8.60;;;5.35;;
31716;SDS011;18301;51.076;17.046;2023-04-24T18:57:47;10.48;;;6.40;;
31716;SDS011;18301;51.076;17.046;2023-04-24T19:02:48;11.20;;;6.65;;
31716;SDS011;18301;51.076;17.046;2023-04-24T19:07:50;11.85;;;7.53;;
31716;SDS011;18301;51.076;17.046;2023-04-24T19:12:52;9.88;;;6.03;;
31716;SDS011;18301;51.076;17.046;2023-04-24T19:17:56;10.82;;;6.18;;
31716;SDS011;18301;51.076;17.046;2023-04-24T19:22:58;11.38;;;6.80;;
31716;SDS011;18301;51.076;17.046;2023-04-24T19:27:59;10.90;;;6.95;;
31716;SDS011;18301;51.076;17.046;2023-04-24T19:33:01;12.82;;;7.65;;
31716;SDS011;18301;51.076;17.046;2023-04-24T19:38:03;12.93;;;7.88;;
31716;SDS011;18301;51.076;17.046;2023-04-24T19:43:05;14.02;;;7.57;;
31716;SDS011;18301;51.076;17.046;2023-04-24T19:48:06;12.30;;;7.90;;
31716;SDS011;18301;51.076;17.046;2023-04-24T19:53:08;14.65;;;8.30;;
31716;SDS011;18301;51.076;17.046;2023-04-24T19:58:09;13.77;;;8.88;;
31716;SDS011;18301;51.076;17.046;2023-04-24T20:03:11;14.85;;;9.02;;
31716;SDS011;18301;51.076;17.046;2023-04-24T20:08:31;13.18;;;7.85;;
31716;SDS011;18301;51.076;17.046;2023-04-24T20:13:33;13.00;;;6.95;;
31716;SDS011;18301;51.076;17.046;2023-04-24T20:18:34;10.63;;;6.32;;
31716;SDS011;18301;51.076;17.046;2023-04-24T20:23:36;10.48;;;6.13;;
31716;SDS011;18301;51.076;17.046;2023-04-24T20:28:37;10.75;;;5.28;;
31716;SDS011;18301;51.076;17.046;2023-04-24T20:33:39;10.27;;;5.22;;
31716;SDS011;18301;51.076;17.046;2023-04-24T20:38:41;9.00;;;5.45;;
31716;SDS011;18301;51.076;17.046;2023-04-24T20:43:43;8.80;;;5.28;;
31716;SDS011;18301;51.076;17.046;2023-04-24T20:48:44;6.63;;;5.05;;
31716;SDS011;18301;51.076;17.046;2023-04-24T20:53:46;5.97;;;4.35;;
31716;SDS011;18301;51.076;17.046;2023-04-24T20:58:49;7.32;;;4.65;;
31716;SDS011;18301;51.076;17.046;2023-04-24T21:03:54;8.88;;;4.40;;
31716;SDS011;18301;51.076;17.046;2023-04-24T21:08:56;5.65;;;4.20;;
31716;SDS011;18301;51.076;17.046;2023-04-24T21:13:57;7.03;;;4.80;;
31716;SDS011;18301;51.076;17.046;2023-04-24T21:18:59;6.38;;;4.35;;
31716;SDS011;18301;51.076;17.046;2023-04-24T21:24:00;8.18;;;4.93;;
31716;SDS011;18301;51.076;17.046;2023-04-24T21:29:04;7.60;;;4.60;;
31716;SDS011;18301;51.076;17.046;2023-04-24T21:34:05;7.82;;;4.95;;
31716;SDS011;18301;51.076;17.046;2023-04-24T21:39:07;8.90;;;5.15;;
31716;SDS011;18301;51.076;17.046;2023-04-24T21:44:08;6.63;;;4.13;;
31716;SDS011;18301;51.076;17.046;2023-04-24T21:49:10;7.00;;;3.80;;
31716;SDS011;18301;51.076;17.046;2023-04-24T21:54:11;5.43;;;3.83;;
31716;SDS011;18301;51.076;17.046;2023-04-24T21:59:12;9.70;;;4.10;;
31716;SDS011;18301;51.076;17.046;2023-04-24T22:04:14;6.45;;;3.60;;
31716;SDS011;18301;51.076;17.046;2023-04-24T22:09:16;5.45;;;3.42;;
31716;SDS011;18301;51.076;17.046;2023-04-24T22:14:18;5.60;;;3.65;;
31716;SDS011;18301;51.076;17.046;2023-04-24T22:19:19;5.20;;;3.08;;
31716;SDS011;18301;51.076;17.046;2023-04-24T22:24:21;4.78;;;3.10;;
31716;SDS011;18301;51.076;17.046;2023-04-24T22:29:22;4.40;;;2.80;;
31716;SDS011;18301;51.076;17.046;2023-04-24T22:34:24;4.28;;;2.80;;
31716;SDS011;18301;51.076;17.046;2023-04-24T22:39:25;5.35;;;2.60;;
31716;SDS011;18301;51.076;17.046;2023-04-24T22:44:26;3.40;;;2.60;;
31716;SDS011;18301;51.076;17.046;2023-04-24T22:49:28;4.63;;;2.50;;
31716;SDS011;18301;51.076;17.046;2023-04-24T22:54:30;3.20;;;2.40;;
31716;SDS011;18301;51.076;17.046;2023-04-24T22:59:33;3.20;;;2.28;;
31716;SDS011;18301;51.076;17.046;2023-04-24T23:04:35;4.07;;;2.40;;
31716;SDS011;18301;51.076;17.046;2023-04-24T23:09:36;3.10;;;2.10;;
31716;SDS011;18301;51.076;17.046;2023-04-24T23:14:38;6.45;;;1.90;;
31716;SDS011;18301;51.076;17.046;2023-04-24T23:19:39;2.85;;;1.50;;
31716;SDS011;18301;51.076;17.046;2023-04-24T23:24:40;2.00;;;1.55;;
31716;SDS011;18301;51.076;17.046;2023-04-24T23:29:42;1.77;;;1.48;;
31716;SDS011;18301;51.076;17.046;2023-04-24T23:34:43;2.88;;;1.45;;
31716;SDS011;18301;51.076;17.046;2023-04-24T23:39:46;1.73;;;1.58;;
31716;SDS011;18301;51.076;17.046;2023-04-24T23:44:47;1.40;;;1.30;;
31716;SDS011;18301;51.076;17.046;2023-04-24T23:49:49;3.08;;;1.10;;
31716;SDS011;18301;51.076;17.046;2023-04-24T23:54:50;2.03;;;1.00;;
31716;SDS011;18301;51.076;17.046;2023-04-24T23:59:52;2.47;;;1.50;;
